Time;durP1;ratioP1;P1;durP2;ratioP2;P2;SDS_P1;SDS_P2;PMS_P1;PMS_P2;Temp;Humidity;BMP_temperature;BMP_pressure;BME280_temperature;BME280_humidity;BME280_pressure;Samples;Min_cycle;Max_cycle;Signal;HPM_P1;HPM_P2
2022/04/07 00:02:11;;;;;;;0.97;0.90;;;;;;;8.70;100.00;93338.03;4971981;28;20200;-67
2022/04/07 00:04:57;;;;;;;0.70;0.70;;;;;;;8.71;100.00;93336.78;4947988;28;20202;-67
2022/04/07 00:07:43;;;;;;;0.70;0.70;;;;;;;8.75;100.00;93331.88;4956065;28;20266;-67
2022/04/07 00:10:29;;;;;;;0.73;0.70;;;;;;;8.60;100.00;93325.06;4971632;28;20213;-68
2022/04/07 00:13:15;;;;;;;1.03;0.80;;;;;;;8.59;100.00;93324.31;4956506;28;20204;-67
2022/04/07 00:16:01;;;;;;;0.97;0.87;;;;;;;8.53;100.00;93323.53;4963010;28;20217;-68
2022/04/07 00:18:47;;;;;;;1.03;0.67;;;;;;;8.53;100.00;93326.25;4943446;28;20225;-68
2022/04/07 00:21:36;;;;;;;1.40;0.90;;;;;;;8.46;100.00;93308.38;4972154;28;20216;-67
2022/04/07 00:24:22;;;;;;;0.60;0.60;;;;;;;8.51;100.00;93324.00;4968611;28;20201;-68
2022/04/07 00:27:08;;;;;;;0.80;0.80;;;;;;;8.44;100.00;93327.16;4955802;28;20288;-67
2022/04/07 00:29:54;;;;;;;0.80;0.80;;;;;;;8.45;100.00;93325.19;4972474;28;20275;-68
2022/04/07 00:32:44;;;;;;;0.80;0.80;;;;;;;8.49;100.00;93314.81;4972350;28;20647;-68
2022/04/07 00:35:30;;;;;;;1.07;0.70;;;;;;;8.45;100.00;93325.94;4949382;28;20226;-67
2022/04/07 00:38:16;;;;;;;0.90;0.90;;;;;;;8.52;100.00;93313.84;4954704;28;20515;-67
2022/04/07 00:41:02;;;;;;;1.30;0.70;;;;;;;8.45;100.00;93311.59;4949198;28;20189;-68
2022/04/07 00:43:51;;;;;;;1.10;0.93;;;;;;;8.40;100.00;93320.44;4938843;29;20198;-67
2022/04/07 00:46:39;;;;;;;0.80;0.70;;;;;;;8.25;100.00;93312.41;4965263;28;20197;-68
2022/04/07 00:49:24;;;;;;;0.80;0.80;;;;;;;8.23;100.00;93308.66;4970473;28;20232;-68
2022/04/07 00:52:12;;;;;;;1.17;1.00;;;;;;;8.28;100.00;93311.44;4953991;28;20196;-69
2022/04/07 00:54:58;;;;;;;0.80;0.80;;;;;;;8.25;100.00;93306.19;4974212;28;20340;-68
2022/04/07 00:57:45;;;;;;;0.83;0.80;;;;;;;8.25;100.00;93304.25;4938239;28;20256;-68
2022/04/07 01:00:31;;;;;;;0.83;0.83;;;;;;;8.33;100.00;93308.00;4956232;28;20579;-68
2022/04/07 01:03:17;;;;;;;1.60;1.23;;;;;;;8.34;100.00;93303.31;4952809;28;20211;-66
2022/04/07 01:06:04;;;;;;;1.03;0.70;;;;;;;8.31;100.00;93296.84;4937810;28;20197;-67
2022/04/07 01:08:50;;;;;;;1.00;0.90;;;;;;;8.35;100.00;93293.94;4951747;28;20213;-67
2022/04/07 01:11:38;;;;;;;1.13;1.03;;;;;;;8.44;100.00;93299.97;4954319;28;20201;-67
2022/04/07 01:14:23;;;;;;;0.83;0.83;;;;;;;8.59;100.00;93296.38;4940612;28;20197;-67
2022/04/07 01:17:10;;;;;;;1.80;0.93;;;;;;;8.53;100.00;93293.59;4950879;28;20201;-68
2022/04/07 01:19:57;;;;;;;0.97;0.90;;;;;;;8.59;100.00;93304.53;4948574;28;20189;-68
2022/04/07 01:22:45;;;;;;;1.10;1.00;;;;;;;8.61;100.00;93297.38;4962235;28;20301;-68
2022/04/07 01:25:31;;;;;;;1.30;1.20;;;;;;;8.57;100.00;93287.94;4944446;29;20640;-68
2022/04/07 01:28:17;;;;;;;1.53;1.20;;;;;;;8.66;100.00;93287.75;4954252;28;20240;-68
2022/04/07 01:31:03;;;;;;;2.20;1.30;;;;;;;8.63;100.00;93280.56;4945697;29;20884;-67
2022/04/07 01:33:49;;;;;;;1.60;1.00;;;;;;;8.68;100.00;93274.41;4965737;28;20679;-68
2022/04/07 01:36:38;;;;;;;1.43;1.13;;;;;;;8.69;100.00;93268.47;4954411;28;20197;-68
2022/04/07 01:39:27;;;;;;;1.40;1.20;;;;;;;8.67;100.00;93273.66;4971426;28;20609;-68
2022/04/07 01:42:14;;;;;;;2.07;1.50;;;;;;;8.68;100.00;93260.81;4966276;28;20205;-68
2022/04/07 01:45:03;;;;;;;1.87;1.50;;;;;;;8.73;100.00;93263.56;4937754;28;20602;-68
2022/04/07 01:47:50;;;;;;;1.20;1.10;;;;;;;8.69;100.00;93282.09;4946249;28;20279;-68
2022/04/07 01:50:38;;;;;;;1.97;1.30;;;;;;;8.69;100.00;93273.19;4951508;28;20209;-68
2022/04/07 01:53:25;;;;;;;1.43;1.33;;;;;;;8.69;100.00;93279.38;4967329;28;20212;-68
2022/04/07 01:56:12;;;;;;;3.07;1.40;;;;;;;8.71;100.00;93268.00;4952470;28;20248;-68
2022/04/07 01:58:58;;;;;;;1.70;1.00;;;;;;;8.73;100.00;93270.97;4969372;28;20298;-68
2022/04/07 02:01:44;;;;;;;1.30;1.07;;;;;;;8.72;100.00;93261.34;4937814;29;20284;-69
2022/04/07 02:04:30;;;;;;;1.60;1.20;;;;;;;8.75;100.00;93252.94;4938019;28;20197;-68
2022/04/07 02:07:16;;;;;;;1.27;1.17;;;;;;;8.78;100.00;93262.84;4947021;28;20651;-68
2022/04/07 02:10:04;;;;;;;2.93;0.97;;;;;;;8.84;100.00;93266.34;4953853;28;20819;-68
2022/04/07 02:12:50;;;;;;;4.13;1.17;;;;;;;8.83;100.00;93264.88;4965111;28;20300;-68
2022/04/07 02:15:36;;;;;;;1.73;0.97;;;;;;;8.79;100.00;93253.44;4955456;28;20647;-68
2022/04/07 02:18:21;;;;;;;2.17;0.90;;;;;;;8.77;100.00;93271.50;4968586;28;20308;-68
2022/04/07 02:21:08;;;;;;;1.83;1.07;;;;;;;8.82;100.00;93252.50;4946612;28;20494;-69
2022/04/07 02:23:54;;;;;;;1.33;1.20;;;;;;;8.85;100.00;93242.59;4936719;29;20617;-68
2022/04/07 02:26:40;;;;;;;1.20;1.10;;;;;;;8.89;100.00;93254.03;4948880;29;20248;-68
2022/04/07 02:29:25;;;;;;;1.20;1.10;;;;;;;8.84;100.00;93252.75;4954235;28;20224;-68
2022/04/07 02:32:11;;;;;;;2.93;1.10;;;;;;;8.81;100.00;93258.41;4977058;28;20208;-67
2022/04/07 02:35:00;;;;;;;1.17;0.80;;;;;;;8.84;100.00;93257.47;4974049;28;20208;-67
2022/04/07 02:37:46;;;;;;;0.93;0.93;;;;;;;8.75;100.00;93255.66;4962252;28;20610;-68
2022/04/07 02:40:34;;;;;;;1.43;1.33;;;;;;;8.77;100.00;93255.94;4954124;28;20197;-67
2022/04/07 02:43:20;;;;;;;1.07;0.97;;;;;;;8.75;100.00;93250.22;4968994;28;20634;-67
2022/04/07 02:46:06;;;;;;;1.33;1.03;;;;;;;8.83;100.00;93258.66;4968695;28;20775;-68
2022/04/07 02:48:52;;;;;;;1.00;1.00;;;;;;;8.85;100.00;93265.13;4953302;28;20228;-67
2022/04/07 02:51:38;;;;;;;1.30;1.00;;;;;;;8.73;100.00;93270.97;4948339;28;20189;-67
2022/04/07 02:54:24;;;;;;;1.57;1.10;;;;;;;8.62;100.00;93252.59;4962258;28;20670;-67
2022/04/07 02:57:10;;;;;;;0.77;0.77;;;;;;;8.47;100.00;93271.78;4938818;28;20205;-65
2022/04/07 02:59:58;;;;;;;1.03;0.90;;;;;;;8.45;100.00;93270.78;4954965;28;20185;-65
2022/04/07 03:02:44;;;;;;;0.70;0.70;;;;;;;8.49;100.00;93263.91;4969725;28;20204;-66
2022/04/07 03:05:30;;;;;;;0.60;0.60;;;;;;;8.47;100.00;93255.47;4964556;28;20892;-66
2022/04/07 03:08:16;;;;;;;0.60;0.60;;;;;;;8.53;100.00;93250.78;4952903;28;20213;-66
2022/04/07 03:11:02;;;;;;;0.70;0.70;;;;;;;8.52;100.00;93252.03;4967156;28;20694;-66
2022/04/07 03:13:48;;;;;;;0.60;0.60;;;;;;;8.57;100.00;93249.84;4938593;28;20251;-66
2022/04/07 03:16:34;;;;;;;0.67;0.67;;;;;;;8.58;100.00;93265.69;4962252;28;20205;-67
2022/04/07 03:19:20;;;;;;;0.63;0.60;;;;;;;8.60;100.00;93254.31;4954158;28;20209;-67
2022/04/07 03:22:06;;;;;;;0.70;0.70;;;;;;;8.52;100.00;93246.59;4971740;28;20658;-66
2022/04/07 03:24:52;;;;;;;0.50;0.50;;;;;;;8.47;100.00;93254.72;4955812;28;20587;-66
2022/04/07 03:27:38;;;;;;;0.87;0.60;;;;;;;8.39;100.00;93251.69;4954976;28;20228;-66
2022/04/07 03:30:24;;;;;;;1.10;0.60;;;;;;;8.32;100.00;93248.66;4956026;28;20264;-66
2022/04/07 03:33:10;;;;;;;2.70;0.40;;;;;;;8.20;100.00;93249.75;4954384;28;20206;-67
2022/04/07 03:35:58;;;;;;;2.50;0.77;;;;;;;8.14;100.00;93247.03;4944605;28;20277;-66
2022/04/07 03:38:45;;;;;;;0.40;0.40;;;;;;;8.16;100.00;93254.69;4963094;28;20231;-67
2022/04/07 03:41:31;;;;;;;0.70;0.70;;;;;;;8.08;100.00;93243.50;4949798;28;20204;-67
2022/04/07 03:44:18;;;;;;;0.60;0.60;;;;;;;8.01;100.00;93245.91;4963800;28;20212;-67
2022/04/07 03:47:04;;;;;;;2.67;0.60;;;;;;;7.95;100.00;93234.22;4952055;28;20274;-67
2022/04/07 03:49:51;;;;;;;1.03;0.60;;;;;;;7.96;100.00;93262.91;4968073;28;20257;-67
2022/04/07 03:52:37;;;;;;;1.10;0.50;;;;;;;7.93;100.00;93247.53;4945358;28;20280;-67
2022/04/07 03:55:24;;;;;;;0.57;0.57;;;;;;;7.86;100.00;93258.84;4954653;28;20209;-67
2022/04/07 03:58:10;;;;;;;0.60;0.60;;;;;;;7.79;100.00;93253.84;4947184;28;20240;-67
2022/04/07 04:00:55;;;;;;;0.50;0.40;;;;;;;7.76;100.00;93244.66;4958188;28;20212;-67
2022/04/07 04:03:41;;;;;;;0.60;0.60;;;;;;;7.63;100.00;93243.53;4955861;28;20200;-68
2022/04/07 04:06:27;;;;;;;1.93;0.70;;;;;;;7.64;100.00;93253.94;4944388;28;20643;-67
2022/04/07 04:09:13;;;;;;;0.57;0.57;;;;;;;7.66;100.00;93254.19;4970568;28;20674;-67
2022/04/07 04:11:59;;;;;;;0.60;0.57;;;;;;;7.76;100.00;93241.19;4955045;28;20197;-68
2022/04/07 04:14:45;;;;;;;0.60;0.60;;;;;;;7.70;100.00;93252.03;4942623;28;20205;-67
2022/04/07 04:17:32;;;;;;;1.23;0.60;;;;;;;7.76;100.00;93250.09;4968417;28;21458;-67
2022/04/07 04:20:18;;;;;;;1.27;0.57;;;;;;;7.74;100.00;93246.38;4968899;28;20666;-66
2022/04/07 04:23:04;;;;;;;0.53;0.53;;;;;;;7.82;100.00;93253.63;4957559;28;20207;-67
2022/04/07 04:25:50;;;;;;;1.53;0.90;;;;;;;7.80;100.00;93255.31;4960421;28;20650;-62
2022/04/07 04:28:36;;;;;;;2.03;0.60;;;;;;;7.87;100.00;93252.94;4963745;28;20217;-63
2022/04/07 04:31:24;;;;;;;1.13;0.90;;;;;;;7.95;100.00;93247.81;4954940;28;20307;-62
2022/04/07 04:34:10;;;;;;;0.60;0.60;;;;;;;7.88;100.00;93242.81;4965711;28;20202;-63
2022/04/07 04:36:56;;;;;;;1.53;0.70;;;;;;;7.84;100.00;93242.28;4961435;28;20619;-67
2022/04/07 04:39:42;;;;;;;2.47;0.70;;;;;;;7.82;100.00;93248.19;4956718;28;20244;-67
2022/04/07 04:42:29;;;;;;;1.00;0.90;;;;;;;7.74;100.00;93255.25;4955770;28;20201;-67
2022/04/07 04:45:15;;;;;;;1.07;0.90;;;;;;;7.74;100.00;93252.53;4969773;28;20197;-67
2022/04/07 04:48:02;;;;;;;3.87;0.80;;;;;;;7.73;100.00;93244.88;4951169;28;20633;-67
2022/04/07 04:50:48;;;;;;;0.50;0.50;;;;;;;7.71;100.00;93250.03;4971471;28;20772;-67
2022/04/07 04:53:34;;;;;;;1.80;0.80;;;;;;;7.64;100.00;93251.22;4937960;29;20326;-63
2022/04/07 04:56:20;;;;;;;1.63;0.63;;;;;;;7.66;100.00;93239.88;4957327;28;20193;-63
2022/04/07 04:59:06;;;;;;;0.60;0.60;;;;;;;7.56;100.00;93241.25;4971705;28;20343;-63
2022/04/07 05:01:52;;;;;;;0.50;0.50;;;;;;;7.51;100.00;93248.13;4957440;28;20201;-63
2022/04/07 05:04:38;;;;;;;0.60;0.60;;;;;;;7.50;100.00;93254.03;4967444;28;20284;-63
2022/04/07 05:07:23;;;;;;;0.50;0.50;;;;;;;7.44;100.00;93261.34;4969221;28;20220;-63
2022/04/07 05:10:09;;;;;;;1.20;0.80;;;;;;;7.55;100.00;93256.78;4967125;28;20212;-62
2022/04/07 05:12:55;;;;;;;4.27;0.70;;;;;;;7.61;100.00;93241.31;4953289;28;20675;-65
2022/04/07 05:15:41;;;;;;;0.50;0.50;;;;;;;7.59;100.00;93240.28;4959362;28;20196;-66
2022/04/07 05:18:27;;;;;;;0.80;0.80;;;;;;;7.62;100.00;93231.19;4968890;28;20300;-67
2022/04/07 05:21:17;;;;;;;1.23;0.80;;;;;;;7.64;100.00;93234.91;4952632;28;20189;-65
2022/04/07 05:24:03;;;;;;;0.67;0.67;;;;;;;7.63;100.00;93235.38;4957086;28;20223;-65
2022/04/07 05:26:49;;;;;;;1.50;0.50;;;;;;;7.72;100.00;93229.81;4954646;28;20193;-65
2022/04/07 05:29:34;;;;;;;0.90;0.70;;;;;;;7.65;100.00;93239.13;4965543;28;20728;-65
2022/04/07 05:32:20;;;;;;;1.10;0.60;;;;;;;7.68;100.00;93242.84;4965522;28;20224;-65
2022/04/07 05:35:07;;;;;;;1.63;0.60;;;;;;;7.78;100.00;93225.16;4951424;29;20189;-65
2022/04/07 05:38:01;;;;;;;1.97;0.60;;;;;;;7.78;100.00;93217.78;4957684;28;20216;-66
2022/04/07 05:40:47;;;;;;;0.67;0.67;;;;;;;7.84;100.00;93229.44;4951578;28;20208;-64
2022/04/07 05:43:33;;;;;;;0.70;0.63;;;;;;;7.79;100.00;93221.97;4943528;28;20200;-67
2022/04/07 05:46:19;;;;;;;0.60;0.60;;;;;;;7.84;100.00;93212.41;4954095;28;20197;-67
2022/04/07 05:49:04;;;;;;;1.87;0.47;;;;;;;7.95;100.00;93213.22;4966589;28;20232;-67
2022/04/07 05:51:53;;;;;;;1.60;0.70;;;;;;;7.88;100.00;93199.31;4949517;29;20364;-67
2022/04/07 05:54:39;;;;;;;1.50;0.57;;;;;;;7.93;100.00;93196.66;4959168;28;20288;-66
2022/04/07 05:57:27;;;;;;;0.80;0.70;;;;;;;7.94;100.00;93206.28;4968406;28;20224;-66
2022/04/07 06:00:19;;;;;;;0.70;0.70;;;;;;;8.09;100.00;93198.03;4969724;28;20193;-66
2022/04/07 06:03:05;;;;;;;0.73;0.50;;;;;;;8.10;100.00;93202.22;4956279;28;20198;-66
2022/04/07 06:05:53;;;;;;;1.07;0.80;;;;;;;8.20;100.00;93181.78;4966422;28;20224;-67
2022/04/07 06:08:39;;;;;;;1.97;0.70;;;;;;;8.31;100.00;93187.34;4937264;28;20691;-67
2022/04/07 06:11:25;;;;;;;0.50;0.50;;;;;;;8.45;100.00;93187.19;4966769;28;20224;-67
2022/04/07 06:14:11;;;;;;;1.43;0.50;;;;;;;8.61;100.00;93185.81;4959485;28;20237;-66
2022/04/07 06:16:57;;;;;;;0.40;0.40;;;;;;;8.65;100.00;93185.59;4967169;28;20628;-63
2022/04/07 06:19:45;;;;;;;0.40;0.40;;;;;;;8.73;99.50;93187.38;4963895;28;20181;-63
2022/04/07 06:22:31;;;;;;;0.40;0.40;;;;;;;8.66;99.04;93192.50;4966172;28;20194;-64
2022/04/07 06:25:17;;;;;;;0.50;0.50;;;;;;;8.59;98.28;93187.53;4951627;28;20212;-62
2022/04/07 06:28:04;;;;;;;0.50;0.50;;;;;;;8.46;99.33;93185.22;4950778;28;20216;-62
2022/04/07 06:30:56;;;;;;;0.40;0.30;;;;;;;8.45;97.03;93178.31;4970083;28;20209;-66
2022/04/07 06:33:41;;;;;;;0.30;0.30;;;;;;;8.35;96.88;93161.41;4967113;28;20297;-64
2022/04/07 06:36:27;;;;;;;0.40;0.40;;;;;;;8.51;95.35;93168.94;4947154;28;20303;-66
2022/04/07 06:39:16;;;;;;;0.40;0.40;;;;;;;8.80;91.97;93165.13;4953429;28;20774;-67
2022/04/07 06:42:02;;;;;;;0.60;0.60;;;;;;;9.11;88.09;93162.28;4967852;28;20205;-67
2022/04/07 06:44:50;;;;;;;1.23;0.50;;;;;;;9.38;85.63;93166.34;4941174;29;20190;-67
2022/04/07 06:47:38;;;;;;;0.30;0.30;;;;;;;9.61;80.37;93154.25;4937203;28;20713;-67
2022/04/07 06:50:25;;;;;;;0.60;0.40;;;;;;;9.80;78.74;93144.38;4968241;28;20228;-66
2022/04/07 06:53:12;;;;;;;0.70;0.47;;;;;;;10.04;75.88;93149.34;4969721;28;20196;-66
2022/04/07 06:55:58;;;;;;;0.73;0.30;;;;;;;10.30;74.04;93134.22;4971967;28;20197;-66
2022/04/07 06:58:43;;;;;;;0.40;0.40;;;;;;;10.29;72.35;93140.94;4966066;28;20310;-66
2022/04/07 07:01:29;;;;;;;0.30;0.30;;;;;;;10.66;70.87;93135.91;4972729;28;20193;-66
2022/04/07 07:04:15;;;;;;;1.70;0.37;;;;;;;10.54;68.68;93120.03;4967114;28;20280;-66
2022/04/07 07:07:01;;;;;;;1.17;0.40;;;;;;;10.83;68.26;93122.94;4951773;28;20243;-65
2022/04/07 07:09:47;;;;;;;0.30;0.30;;;;;;;11.04;66.77;93119.88;4964924;28;20224;-66
2022/04/07 07:12:33;;;;;;;1.37;0.30;;;;;;;10.92;66.77;93125.41;4951091;28;20203;-66
2022/04/07 07:15:23;;;;;;;0.20;0.20;;;;;;;11.08;67.12;93123.84;4942446;28;20201;-65
2022/04/07 07:18:09;;;;;;;2.00;0.30;;;;;;;10.96;66.02;93109.47;4966603;28;20221;-65
2022/04/07 07:20:55;;;;;;;0.30;0.30;;;;;;;10.93;65.61;93115.22;4972929;28;20651;-65
2022/04/07 07:23:41;;;;;;;0.20;0.20;;;;;;;11.19;65.91;93115.59;4960809;28;20639;-65
2022/04/07 07:26:27;;;;;;;0.47;0.30;;;;;;;11.15;64.82;93111.66;4956585;28;20193;-65
2022/04/07 07:29:16;;;;;;;0.57;0.30;;;;;;;10.78;64.93;93120.22;4970281;28;20713;-65
2022/04/07 07:32:02;;;;;;;0.53;0.30;;;;;;;10.87;64.21;93100.84;4965794;28;20203;-65
2022/04/07 07:34:48;;;;;;;1.40;0.40;;;;;;;10.80;63.91;93113.03;4930273;29;20197;-65
2022/04/07 07:37:35;;;;;;;0.43;0.23;;;;;;;10.75;63.93;93111.06;4935191;28;20221;-66
2022/04/07 07:40:23;;;;;;;0.30;0.30;;;;;;;10.79;63.88;93089.69;4966279;28;20193;-66
2022/04/07 07:43:09;;;;;;;0.30;0.20;;;;;;;11.41;63.26;93095.59;4936777;28;20281;-65
2022/04/07 07:45:55;;;;;;;0.43;0.43;;;;;;;11.64;62.63;93108.66;4955567;28;20692;-65
2022/04/07 07:48:41;;;;;;;0.20;0.20;;;;;;;11.55;59.90;93092.56;4963205;28;20298;-66
2022/04/07 07:51:27;;;;;;;2.37;0.60;;;;;;;11.57;59.67;93079.09;4939784;29;20213;-66
2022/04/07 07:54:16;;;;;;;0.50;0.27;;;;;;;11.47;59.49;93091.59;4955126;28;20213;-66
2022/04/07 07:57:02;;;;;;;0.80;0.20;;;;;;;11.73;58.61;93058.38;4958139;28;20201;-65
2022/04/07 07:59:49;;;;;;;0.93;0.37;;;;;;;11.60;58.21;93078.09;4958526;28;20544;-66
2022/04/07 08:02:35;;;;;;;1.13;0.37;;;;;;;11.78;58.03;93079.47;4958085;28;20201;-66
2022/04/07 08:05:21;;;;;;;1.73;0.30;;;;;;;12.41;57.45;93087.38;4971057;28;20596;-66
2022/04/07 08:08:07;;;;;;;0.90;0.30;;;;;;;12.19;56.64;93074.66;4964764;28;20216;-67
2022/04/07 08:10:55;;;;;;;2.20;0.20;;;;;;;12.02;56.42;93076.81;4965227;28;20586;-67
2022/04/07 08:13:41;;;;;;;0.20;0.20;;;;;;;12.27;56.37;93074.84;4951017;28;20209;-67
2022/04/07 08:16:30;;;;;;;0.30;0.23;;;;;;;12.18;56.46;93075.19;4965809;28;20276;-63
2022/04/07 08:19:15;;;;;;;2.63;0.40;;;;;;;11.62;58.36;93069.38;4958903;28;20213;-63
2022/04/07 08:22:03;;;;;;;0.43;0.40;;;;;;;11.73;59.13;93066.59;4980073;28;20200;-63
2022/04/07 08:24:49;;;;;;;1.07;0.50;;;;;;;12.21;59.52;93055.00;4938828;28;20236;-63
2022/04/07 08:27:34;;;;;;;5.97;0.40;;;;;;;12.31;56.45;93056.13;4949912;28;20222;-63
2022/04/07 08:30:20;;;;;;;0.53;0.37;;;;;;;12.33;56.06;93057.13;4938592;29;20230;-63
2022/04/07 08:33:06;;;;;;;3.07;0.40;;;;;;;12.48;57.19;93057.47;4942602;28;20197;-64
2022/04/07 08:35:54;;;;;;;0.40;0.40;;;;;;;12.63;55.11;93048.81;4955743;28;20193;-64
2022/04/07 08:38:40;;;;;;;0.23;0.20;;;;;;;12.66;54.10;93053.28;4956559;28;20251;-63
2022/04/07 08:41:31;;;;;;;1.70;0.20;;;;;;;13.02;53.65;93038.91;4968752;28;20269;-64
2022/04/07 08:44:17;;;;;;;1.53;0.30;;;;;;;13.09;53.28;93043.81;4961502;28;20222;-64
2022/04/07 08:47:03;;;;;;;2.57;0.40;;;;;;;13.21;52.59;93033.44;4961273;28;20185;-63
2022/04/07 08:49:50;;;;;;;0.40;0.20;;;;;;;13.51;51.50;93034.00;4954131;28;20276;-67
2022/04/07 08:52:36;;;;;;;0.87;0.30;;;;;;;13.65;51.29;93046.50;4951056;28;20196;-67
2022/04/07 08:55:22;;;;;;;1.73;0.30;;;;;;;13.63;50.19;92999.66;4951591;28;20192;-67
2022/04/07 08:58:10;;;;;;;0.90;0.50;;;;;;;13.36;50.25;93011.78;4946373;28;20307;-67
2022/04/07 09:00:56;;;;;;;1.93;0.50;;;;;;;13.55;49.62;93030.97;4965594;28;20569;-68
2022/04/07 09:03:43;;;;;;;0.30;0.20;;;;;;;13.71;50.36;93014.25;4959631;28;20959;-68
2022/04/07 09:06:33;;;;;;;2.20;0.80;;;;;;;14.28;49.87;93010.81;4950042;28;20280;-64
2022/04/07 09:09:21;;;;;;;5.07;1.40;;;;;;;14.30;48.14;92991.78;4969229;28;20588;-64
2022/04/07 09:12:07;;;;;;;1.23;0.37;;;;;;;14.33;48.28;92999.00;4955811;28;20298;-64
2022/04/07 09:15:00;;;;;;;0.40;0.40;;;;;;;14.13;48.79;92999.59;4957225;28;20189;-64
2022/04/07 09:17:55;;;;;;;1.60;0.67;;;;;;;14.17;47.74;93002.00;4934921;28;20259;-64
2022/04/07 09:20:43;;;;;;;2.67;0.60;;;;;;;14.50;47.75;92985.69;4955260;28;20205;-64
2022/04/07 09:23:37;;;;;;;3.17;0.67;;;;;;;14.85;46.89;92986.50;4956823;28;20284;-64
2022/04/07 09:26:23;;;;;;;0.53;0.30;;;;;;;14.46;46.10;92963.28;4968408;28;20204;-64
2022/04/07 09:29:11;;;;;;;0.40;0.40;;;;;;;14.46;45.04;92982.50;4953463;28;20686;-64
2022/04/07 09:31:57;;;;;;;0.43;0.40;;;;;;;14.63;44.78;92967.72;4966675;28;20194;-64
2022/04/07 09:34:45;;;;;;;7.83;0.40;;;;;;;14.53;43.50;92957.16;4970434;28;20201;-64
2022/04/07 09:37:31;;;;;;;0.73;0.37;;;;;;;14.77;43.92;92964.41;4942266;28;20241;-64
2022/04/07 09:40:18;;;;;;;1.63;0.30;;;;;;;14.90;43.44;92969.88;4967940;28;20637;-64
2022/04/07 09:43:07;;;;;;;2.03;0.30;;;;;;;15.50;43.16;92958.84;4956689;28;20193;-64
2022/04/07 09:45:55;;;;;;;0.67;0.43;;;;;;;14.95;43.37;92943.56;4965995;28;20547;-64
2022/04/07 09:49:04;;;;;;;0.67;0.60;;;;;;;14.93;44.28;92951.59;4945785;28;20225;-65
2022/04/07 09:51:51;;;;;;;1.63;0.30;;;;;;;15.00;44.46;92940.69;4950741;28;20548;-64
2022/04/07 09:54:40;;;;;;;2.87;0.40;;;;;;;14.69;44.27;92941.59;4952593;29;20668;-64
2022/04/07 09:57:27;;;;;;;0.70;0.30;;;;;;;14.28;44.83;92930.44;4953582;28;20213;-64
2022/04/07 10:00:14;;;;;;;1.33;0.40;;;;;;;14.15;44.78;92920.16;4940119;28;20248;-64
2022/04/07 10:03:02;;;;;;;0.63;0.40;;;;;;;14.44;44.86;92910.88;4967750;28;20228;-64
2022/04/07 10:05:51;;;;;;;1.07;0.40;;;;;;;14.31;45.73;92916.41;4955813;28;20192;-64
2022/04/07 10:08:38;;;;;;;0.90;0.30;;;;;;;14.47;45.70;92900.84;4963440;28;20238;-64
2022/04/07 10:11:24;;;;;;;1.23;0.43;;;;;;;15.19;45.10;92902.00;4969501;28;20233;-64
2022/04/07 10:14:14;;;;;;;0.47;0.23;;;;;;;15.19;44.21;92899.25;4955507;28;20269;-65
2022/04/07 10:17:00;;;;;;;0.53;0.20;;;;;;;15.04;44.76;92896.38;4938045;28;20688;-65
2022/04/07 10:19:53;;;;;;;0.43;0.40;;;;;;;14.99;44.59;92892.47;4953338;28;20203;-64
2022/04/07 10:22:39;;;;;;;0.50;0.30;;;;;;;15.78;44.50;92870.09;4969977;28;20568;-63
2022/04/07 10:25:26;;;;;;;0.20;0.20;;;;;;;15.58;44.11;92877.84;4969181;28;20217;-64
2022/04/07 10:28:13;;;;;;;2.33;0.33;;;;;;;15.75;44.24;92866.41;4953661;28;20208;-64
2022/04/07 10:30:59;;;;;;;3.63;0.30;;;;;;;15.55;43.85;92878.91;4968524;28;20208;-64
2022/04/07 10:33:46;;;;;;;0.40;0.23;;;;;;;15.51;44.32;92853.00;4939252;28;20209;-64
2022/04/07 10:36:38;;;;;;;1.50;0.20;;;;;;;15.64;44.03;92855.69;4946632;28;20233;-64
2022/04/07 10:39:32;;;;;;;0.30;0.30;;;;;;;15.25;44.11;92853.13;4967140;28;20213;-64
2022/04/07 10:42:57;;;;;;;0.20;0.20;;;;;;;15.78;43.44;92854.31;4969832;28;20199;-64
2022/04/07 10:45:46;;;;;;;3.17;0.40;;;;;;;15.23;43.51;92833.69;4969812;28;20206;-64
2022/04/07 10:48:35;;;;;;;2.93;0.47;;;;;;;14.92;44.39;92837.41;4961036;28;20300;-64
2022/04/07 10:51:43;;;;;;;0.30;0.20;;;;;;;14.54;44.39;92824.03;4954433;28;20708;-64
2022/04/07 10:54:30;;;;;;;3.13;0.30;;;;;;;14.56;43.87;92820.75;4955203;28;20242;-64
2022/04/07 10:57:17;;;;;;;0.60;0.40;;;;;;;14.96;44.48;92818.59;4968865;28;20197;-64
2022/04/07 11:00:03;;;;;;;1.77;0.27;;;;;;;15.07;43.98;92815.59;4966036;28;20186;-65
2022/04/07 11:03:13;;;;;;;3.77;0.30;;;;;;;15.07;43.83;92807.34;4965834;28;20198;-64
2022/04/07 11:06:06;;;;;;;0.43;0.30;;;;;;;14.81;43.63;92810.19;4938541;28;20625;-65
2022/04/07 11:09:11;;;;;;;1.13;0.30;;;;;;;14.72;44.34;92791.41;4962935;28;20577;-64
2022/04/07 11:12:08;;;;;;;0.73;0.30;;;;;;;14.55;44.89;92789.06;4962370;28;20276;-64
2022/04/07 11:15:24;;;;;;;2.50;0.27;;;;;;;14.39;44.79;92804.63;4950055;29;20221;-64
2022/04/07 11:18:31;;;;;;;0.80;0.40;;;;;;;14.24;44.87;92800.94;4959530;28;20312;-64
2022/04/07 11:21:16;;;;;;;1.50;0.37;;;;;;;14.17;45.42;92796.09;4969337;28;20309;-64
2022/04/07 11:24:07;;;;;;;4.27;0.40;;;;;;;14.14;45.56;92797.16;4959990;28;20217;-64
2022/04/07 11:26:54;;;;;;;3.20;0.43;;;;;;;14.11;45.13;92796.22;4967821;28;20189;-64
2022/04/07 11:29:40;;;;;;;1.57;0.60;;;;;;;14.02;45.78;92791.16;4949285;28;20276;-64
2022/04/07 11:32:26;;;;;;;0.83;0.30;;;;;;;13.95;46.19;92789.06;4954905;28;20208;-64
2022/04/07 11:35:13;;;;;;;0.33;0.20;;;;;;;13.83;46.73;92785.06;4952815;28;20215;-64
2022/04/07 11:37:59;;;;;;;0.40;0.30;;;;;;;13.72;47.20;92790.78;4949407;28;20209;-64
2022/04/07 11:40:59;;;;;;;1.03;0.30;;;;;;;13.71;47.32;92781.06;4954430;28;20209;-64
2022/04/07 11:43:49;;;;;;;1.03;0.40;;;;;;;13.81;46.30;92781.38;4944865;28;20209;-64
2022/04/07 11:46:36;;;;;;;1.20;0.30;;;;;;;13.86;46.23;92775.06;4957501;28;20252;-64
2022/04/07 11:49:23;;;;;;;0.60;0.20;;;;;;;13.94;47.05;92770.38;4969171;28;20220;-64
2022/04/07 11:52:09;;;;;;;0.73;0.30;;;;;;;14.16;46.00;92756.94;4958297;28;20201;-64
2022/04/07 11:54:57;;;;;;;2.50;0.30;;;;;;;14.54;46.00;92760.13;4952516;28;20311;-64
2022/04/07 11:57:43;;;;;;;0.37;0.37;;;;;;;14.63;45.53;92729.44;4965887;28;20227;-64
2022/04/07 12:00:32;;;;;;;1.43;0.30;;;;;;;14.65;45.73;92762.59;4959686;28;20212;-64
2022/04/07 12:03:18;;;;;;;0.40;0.20;;;;;;;15.43;44.00;92753.19;4956952;28;20205;-64
2022/04/07 12:06:04;;;;;;;3.40;0.30;;;;;;;15.69;43.44;92759.22;4969870;28;20291;-64
2022/04/07 12:08:51;;;;;;;1.03;0.47;;;;;;;15.64;44.59;92757.34;4958621;28;20361;-66
2022/04/07 12:11:39;;;;;;;0.30;0.30;;;;;;;15.83;44.31;92745.34;4957024;28;20574;-66
2022/04/07 12:14:25;;;;;;;0.20;0.20;;;;;;;15.44;43.92;92736.13;4957196;28;20209;-67
2022/04/07 12:17:11;;;;;;;0.50;0.50;;;;;;;15.26;45.03;92739.84;4954548;28;20208;-67
2022/04/07 12:19:57;;;;;;;0.20;0.17;;;;;;;14.93;45.21;92739.97;4973217;28;20280;-66
2022/04/07 12:22:43;;;;;;;1.90;0.20;;;;;;;14.89;45.34;92734.06;4971955;28;20220;-66
2022/04/07 12:25:29;;;;;;;1.00;0.30;;;;;;;14.77;46.12;92730.84;4971370;28;20201;-66
2022/04/07 12:28:16;;;;;;;2.53;0.43;;;;;;;14.59;46.14;92742.03;4953339;28;20311;-66
2022/04/07 12:31:02;;;;;;;0.70;0.33;;;;;;;14.60;46.32;92740.75;4956445;28;20264;-66
2022/04/07 12:33:49;;;;;;;0.50;0.30;;;;;;;14.53;45.92;92731.91;4939017;29;20190;-64
2022/04/07 12:36:37;;;;;;;1.00;0.30;;;;;;;14.59;45.96;92729.03;4961635;28;20205;-64
2022/04/07 12:39:28;;;;;;;0.53;0.20;;;;;;;14.64;45.53;92747.41;4958205;28;20225;-64
2022/04/07 12:42:14;;;;;;;1.00;0.20;;;;;;;14.61;45.37;92720.25;4971623;28;20280;-64
2022/04/07 12:45:07;;;;;;;4.87;0.83;;;;;;;14.75;45.81;92733.38;4971397;28;20272;-64
2022/04/07 12:48:10;;;;;;;0.50;0.20;;;;;;;14.75;45.93;92725.16;4946264;28;20224;-64
2022/04/07 12:50:56;;;;;;;0.80;0.30;;;;;;;14.69;46.77;92721.06;4957784;28;20240;-64
2022/04/07 12:53:42;;;;;;;1.67;0.40;;;;;;;14.66;47.20;92738.63;4976525;28;20604;-64
2022/04/07 12:56:29;;;;;;;0.37;0.20;;;;;;;14.58;46.43;92715.84;4960267;28;20201;-64
2022/04/07 12:59:15;;;;;;;0.47;0.30;;;;;;;14.39;46.87;92716.75;4972174;28;20213;-66
2022/04/07 13:02:01;;;;;;;1.07;0.30;;;;;;;14.22;47.10;92715.66;4957817;28;20379;-66
2022/04/07 13:04:54;;;;;;;0.13;0.13;;;;;;;14.24;47.87;92732.31;4937662;28;20198;-66
2022/04/07 13:07:40;;;;;;;0.30;0.23;;;;;;;14.15;48.54;92724.53;4968571;28;20227;-66
2022/04/07 13:10:26;;;;;;;0.20;0.20;;;;;;;14.05;48.86;92732.47;4957427;28;20235;-67